createdAt,value
2017-08-30T00:01:45.890Z,14.80
2017-08-30T00:04:14.590Z,13.40
2017-08-30T00:06:42.927Z,14.30
2017-08-30T00:09:11.326Z,13.90
2017-08-30T00:11:39.722Z,15.40
2017-08-30T00:14:08.044Z,14.93
2017-08-30T00:16:36.499Z,14.90
2017-08-30T00:19:05.112Z,14.10
2017-08-30T00:21:33.474Z,14.93
2017-08-30T00:24:01.790Z,15.77
2017-08-30T00:26:30.200Z,14.50
2017-08-30T00:28:58.548Z,14.43
2017-08-30T00:31:27.115Z,14.27
2017-08-30T00:33:55.455Z,15.30
2017-08-30T00:36:24.140Z,16.50
2017-08-30T00:38:52.561Z,15.10
2017-08-30T00:41:20.928Z,14.93
2017-08-30T00:43:49.498Z,14.30
2017-08-30T00:46:17.870Z,14.13
2017-08-30T00:48:46.216Z,14.00
2017-08-30T00:51:14.776Z,15.03
2017-08-30T00:53:43.256Z,14.97
2017-08-30T00:56:11.579Z,14.80
2017-08-30T00:58:40.037Z,15.23
2017-08-30T01:01:08.788Z,13.57
2017-08-30T01:03:37.492Z,14.30
2017-08-30T01:06:05.913Z,13.67
2017-08-30T01:08:34.938Z,14.80
2017-08-30T01:11:03.389Z,14.20
2017-08-30T01:13:32.279Z,12.53
2017-08-30T01:16:00.842Z,12.60
2017-08-30T01:18:29.293Z,13.73
2017-08-30T01:20:57.894Z,14.17
2017-08-30T01:23:26.253Z,13.30
2017-08-30T01:25:54.576Z,13.50
2017-08-30T01:28:23.165Z,13.03
2017-08-30T01:30:51.545Z,13.27
2017-08-30T01:33:20.130Z,14.20
2017-08-30T01:35:48.509Z,13.23
2017-08-30T01:38:17.103Z,12.97
2017-08-30T01:40:46.263Z,12.40
2017-08-30T01:43:14.853Z,11.77
2017-08-30T01:45:43.235Z,12.07
2017-08-30T01:48:12.049Z,13.23
2017-08-30T01:50:40.636Z,12.67
2017-08-30T01:53:09.152Z,12.23
2017-08-30T01:55:38.058Z,13.70
2017-08-30T01:58:06.384Z,11.73
2017-08-30T02:00:34.697Z,12.20
2017-08-30T02:03:03.380Z,14.20
2017-08-30T02:05:31.808Z,14.40
2017-08-30T02:08:00.483Z,14.10
2017-08-30T02:10:29.280Z,13.80
2017-08-30T02:12:57.610Z,13.30
2017-08-30T02:15:26.040Z,12.83
2017-08-30T02:17:54.649Z,15.40
2017-08-30T02:20:23.008Z,13.30
2017-08-30T02:22:51.417Z,14.00
2017-08-30T02:25:19.817Z,13.27
2017-08-30T02:27:48.168Z,13.17
2017-08-30T02:30:17.437Z,13.07
2017-08-30T02:32:45.829Z,11.87
2017-08-30T02:35:14.365Z,13.03
2017-08-30T02:37:42.969Z,12.20
2017-08-30T02:40:11.983Z,12.60
2017-08-30T02:42:40.922Z,13.60
2017-08-30T02:45:09.419Z,13.87
2017-08-30T02:47:37.777Z,12.57
2017-08-30T02:50:06.088Z,12.80
2017-08-30T02:52:37.506Z,12.00
2017-08-30T02:55:05.817Z,12.13
2017-08-30T02:57:34.191Z,13.30
2017-08-30T03:00:02.950Z,14.20
2017-08-30T03:02:31.544Z,12.67
2017-08-30T03:05:00.200Z,11.70
2017-08-30T03:07:28.584Z,13.40
2017-08-30T03:09:56.934Z,13.13
2017-08-30T03:12:26.367Z,13.57
2017-08-30T03:14:54.843Z,12.50
2017-08-30T03:17:23.229Z,12.93
2017-08-30T03:19:51.581Z,12.60
2017-08-30T03:22:19.920Z,12.47
2017-08-30T03:24:48.584Z,11.20
2017-08-30T03:27:17.146Z,13.10
2017-08-30T03:29:45.526Z,11.93
2017-08-30T03:32:13.925Z,12.70
2017-08-30T03:34:42.274Z,13.70
2017-08-30T03:37:11.857Z,12.80
2017-08-30T03:39:40.521Z,13.40
2017-08-30T03:42:08.872Z,11.60
2017-08-30T03:44:37.231Z,12.67
2017-08-30T03:47:06.062Z,13.30
2017-08-30T03:49:35.361Z,13.60
2017-08-30T03:52:03.905Z,11.63
2017-08-30T03:54:32.440Z,12.27
2017-08-30T03:57:00.763Z,11.80
2017-08-30T03:59:29.293Z,12.10
2017-08-30T04:01:57.628Z,12.40
2017-08-30T04:04:25.961Z,12.70
2017-08-30T04:06:54.588Z,14.07
2017-08-30T04:09:23.036Z,12.60
2017-08-30T04:11:51.544Z,13.73
2017-08-30T04:14:20.069Z,13.83
2017-08-30T04:16:48.613Z,12.43
2017-08-30T04:19:16.927Z,13.00
2017-08-30T04:21:45.260Z,12.40
2017-08-30T04:24:13.647Z,12.67
2017-08-30T04:26:42.445Z,12.53
2017-08-30T04:29:10.821Z,13.93
2017-08-30T04:31:39.286Z,12.83
2017-08-30T04:34:07.681Z,12.60
2017-08-30T04:36:36.043Z,12.60
2017-08-30T04:39:04.464Z,12.43
2017-08-30T04:41:33.209Z,13.93
2017-08-30T04:44:01.523Z,12.27
2017-08-30T04:46:29.846Z,12.83
2017-08-30T04:48:58.193Z,12.57
2017-08-30T04:51:26.523Z,12.40
2017-08-30T04:53:54.902Z,13.93
2017-08-30T04:56:23.242Z,14.03
2017-08-30T04:58:51.571Z,11.83
2017-08-30T05:01:20.436Z,12.53
2017-08-30T05:03:48.976Z,12.40
2017-08-30T05:06:17.462Z,12.53
2017-08-30T05:08:45.922Z,11.80
2017-08-30T05:11:14.278Z,13.10
2017-08-30T05:13:42.853Z,13.67
2017-08-30T05:16:11.365Z,12.87
2017-08-30T05:18:39.745Z,13.40
2017-08-30T05:21:08.160Z,14.40
2017-08-30T05:23:36.497Z,14.60
2017-08-30T05:26:05.256Z,15.07
2017-08-30T05:28:33.663Z,15.30
2017-08-30T05:31:02.972Z,14.23
2017-08-30T05:33:31.464Z,13.67
2017-08-30T05:35:59.822Z,13.60
2017-08-30T05:38:28.245Z,11.97
2017-08-30T05:40:56.613Z,15.00
2017-08-30T05:43:24.969Z,12.77
2017-08-30T05:45:53.297Z,12.40
2017-08-30T05:48:22.707Z,11.60
2017-08-30T05:50:51.046Z,12.67
2017-08-30T05:53:19.472Z,13.43
2017-08-30T05:55:48.006Z,11.87
2017-08-30T05:58:16.317Z,11.70
2017-08-30T06:00:44.668Z,13.43
2017-08-30T06:03:13.298Z,13.50
2017-08-30T06:05:41.642Z,13.20
2017-08-30T06:08:10.070Z,11.53
2017-08-30T06:10:38.695Z,12.50
2017-08-30T06:13:07.064Z,14.03
2017-08-30T06:15:35.419Z,12.20
2017-08-30T06:18:03.798Z,14.90
2017-08-30T06:20:32.384Z,14.00
2017-08-30T06:23:00.803Z,15.47
2017-08-30T06:25:29.181Z,13.63
2017-08-30T06:27:58.233Z,12.23
2017-08-30T06:30:27.598Z,15.83
2017-08-30T06:32:56.136Z,13.43
2017-08-30T06:35:24.744Z,14.50
2017-08-30T06:37:53.388Z,14.73
2017-08-30T06:40:21.905Z,15.97
2017-08-30T06:42:50.461Z,15.20
2017-08-30T06:45:18.825Z,15.17
2017-08-30T06:47:47.500Z,14.50
2017-08-30T06:50:16.259Z,12.93
2017-08-30T06:52:44.779Z,12.67
2017-08-30T06:55:13.463Z,12.07
2017-08-30T06:57:42.080Z,12.33
2017-08-30T07:00:10.628Z,12.10
2017-08-30T07:02:38.956Z,11.73
2017-08-30T07:05:07.391Z,11.50
2017-08-30T07:07:35.758Z,11.37
2017-08-30T07:10:04.142Z,10.30
2017-08-30T07:12:32.482Z,10.93
2017-08-30T07:15:01.073Z,10.57
2017-08-30T07:17:29.540Z,10.40
2017-08-30T07:19:58.634Z,11.03
2017-08-30T07:22:26.971Z,11.37
2017-08-30T07:24:55.280Z,11.70
2017-08-30T07:27:23.981Z,12.43
2017-08-30T07:29:52.318Z,13.97
2017-08-30T07:32:21.103Z,11.37
2017-08-30T07:34:49.558Z,10.60
2017-08-30T07:37:17.894Z,10.80
2017-08-30T07:39:46.999Z,10.10
2017-08-30T07:42:15.409Z,12.37
2017-08-30T07:44:43.720Z,11.33
2017-08-30T07:47:12.089Z,9.67
2017-08-30T07:49:40.414Z,10.27
2017-08-30T07:52:08.844Z,10.40
2017-08-30T07:54:37.168Z,9.30
2017-08-30T07:57:05.548Z,10.40
2017-08-30T07:59:34.019Z,10.13
2017-08-30T08:02:03.176Z,10.00
2017-08-30T08:04:31.507Z,9.37
2017-08-30T08:06:59.832Z,10.90
2017-08-30T08:09:28.183Z,10.10
2017-08-30T08:11:57.441Z,10.63
2017-08-30T08:14:25.776Z,9.10
2017-08-30T08:16:54.221Z,9.00
2017-08-30T08:19:22.816Z,9.17
2017-08-30T08:21:51.977Z,8.53
2017-08-30T08:24:20.610Z,8.97
2017-08-30T08:26:49.011Z,9.20
2017-08-30T08:29:17.410Z,8.53
2017-08-30T08:31:45.835Z,8.70
2017-08-30T08:34:14.146Z,10.40
2017-08-30T08:36:42.570Z,8.10
2017-08-30T08:39:10.876Z,8.63
2017-08-30T08:41:39.189Z,9.10
2017-08-30T08:44:07.520Z,8.30
2017-08-30T08:46:36.000Z,8.73
2017-08-30T08:49:04.460Z,7.60
2017-08-30T08:51:32.781Z,9.20
2017-08-30T08:54:01.511Z,7.83
2017-08-30T08:56:29.837Z,8.90
2017-08-30T08:58:58.142Z,8.83
2017-08-30T09:01:26.603Z,8.30
2017-08-30T09:03:54.969Z,7.73
2017-08-30T09:06:23.368Z,8.07
2017-08-30T09:08:51.741Z,7.73
2017-08-30T09:11:20.167Z,9.23
2017-08-30T09:13:48.558Z,8.27
2017-08-30T09:16:16.896Z,7.37
2017-08-30T09:18:45.660Z,8.97
2017-08-30T09:21:14.187Z,7.53
2017-08-30T09:23:42.500Z,7.07
2017-08-30T09:26:10.950Z,8.00
2017-08-30T09:28:39.595Z,9.20
2017-08-30T09:31:07.907Z,6.87
2017-08-30T09:33:36.356Z,7.30
2017-08-30T09:36:04.666Z,7.60
2017-08-30T09:38:33.113Z,7.90
2017-08-30T09:41:01.610Z,8.83
2017-08-30T09:43:29.953Z,7.73
2017-08-30T09:45:58.334Z,7.83
2017-08-30T09:48:26.651Z,8.10
2017-08-30T09:50:55.000Z,8.70
2017-08-30T09:53:23.348Z,8.33
2017-08-30T09:55:51.761Z,7.57
2017-08-30T09:58:20.217Z,7.10
2017-08-30T10:00:48.598Z,7.63
2017-08-30T10:03:16.985Z,7.90
2017-08-30T10:05:45.673Z,8.77
2017-08-30T10:08:14.997Z,8.47
2017-08-30T10:10:43.341Z,8.23
2017-08-30T10:13:11.664Z,8.80
2017-08-30T10:15:40.041Z,8.27
2017-08-30T10:18:08.628Z,7.83
2017-08-30T10:20:37.602Z,8.30
2017-08-30T10:23:05.982Z,7.80
2017-08-30T10:25:34.416Z,7.90
2017-08-30T10:28:02.812Z,8.03
2017-08-30T10:30:31.298Z,9.93
2017-08-30T10:32:59.784Z,6.40
2017-08-30T10:35:28.110Z,7.53
2017-08-30T10:37:56.464Z,8.63
2017-08-30T10:40:24.806Z,7.70
2017-08-30T10:42:53.200Z,8.90
2017-08-30T10:45:21.715Z,6.43
2017-08-30T10:47:50.255Z,8.00
2017-08-30T10:50:18.597Z,8.40
2017-08-30T10:52:46.987Z,7.93
2017-08-30T10:55:15.292Z,9.80
2017-08-30T10:57:44.157Z,8.13
2017-08-30T11:00:13.369Z,7.70
2017-08-30T11:02:41.673Z,7.37
2017-08-30T11:05:10.093Z,9.20
2017-08-30T11:07:38.647Z,7.37
2017-08-30T11:10:07.005Z,7.63
2017-08-30T11:12:35.338Z,7.70
2017-08-30T11:15:03.677Z,7.60
2017-08-30T11:17:32.206Z,6.90
2017-08-30T11:20:01.058Z,7.67
2017-08-30T11:22:29.381Z,6.23
2017-08-30T11:24:57.747Z,7.20
2017-08-30T11:27:26.169Z,6.07
2017-08-30T11:29:54.764Z,7.10
2017-08-30T11:32:23.068Z,8.63
2017-08-30T11:34:51.404Z,7.17
2017-08-30T11:37:19.903Z,9.10
2017-08-30T11:39:48.370Z,8.50
2017-08-30T11:42:16.807Z,7.00
2017-08-30T11:44:45.203Z,6.77
2017-08-30T11:47:13.537Z,8.43
2017-08-30T11:49:41.852Z,6.43
2017-08-30T11:52:10.255Z,7.60
2017-08-30T11:54:38.716Z,7.37
2017-08-30T11:57:07.160Z,8.23
2017-08-30T11:59:35.565Z,7.73
2017-08-30T12:02:03.888Z,6.60
2017-08-30T12:04:32.208Z,6.43
2017-08-30T12:07:00.590Z,6.23
2017-08-30T12:09:29.127Z,7.73
2017-08-30T12:11:57.525Z,6.60
2017-08-30T12:14:26.026Z,7.20
2017-08-30T12:16:54.347Z,6.67
2017-08-30T12:19:22.721Z,7.57
2017-08-30T12:21:51.252Z,6.63
2017-08-30T12:24:19.570Z,6.90
2017-08-30T12:26:47.900Z,5.60
2017-08-30T12:29:16.224Z,7.03
2017-08-30T12:31:44.785Z,7.07
2017-08-30T12:34:13.085Z,8.10
2017-08-30T12:36:47.066Z,8.13
2017-08-30T12:39:21.115Z,6.77
2017-08-30T12:41:50.005Z,6.30
2017-08-30T12:44:18.364Z,9.60
2017-08-30T12:46:47.111Z,7.13
2017-08-30T12:49:15.441Z,6.93
2017-08-30T12:51:43.870Z,6.90
2017-08-30T12:54:12.432Z,6.80
2017-08-30T12:56:40.772Z,5.83
2017-08-30T12:59:09.160Z,6.73
2017-08-30T13:01:38.487Z,8.40
2017-08-30T13:04:06.958Z,6.07
2017-08-30T13:06:35.636Z,8.50
2017-08-30T13:09:04.149Z,6.37
2017-08-30T13:11:32.738Z,7.07
2017-08-30T13:14:01.155Z,7.73
2017-08-30T13:16:29.468Z,6.70
2017-08-30T13:18:57.860Z,6.17
2017-08-30T13:21:26.169Z,7.70
2017-08-30T13:23:54.477Z,6.90
2017-08-30T13:26:23.051Z,7.17
2017-08-30T13:28:51.409Z,7.13
2017-08-30T13:31:20.098Z,7.13
2017-08-30T13:33:48.493Z,7.50
2017-08-30T13:36:16.809Z,6.30
2017-08-30T13:38:45.156Z,7.83
2017-08-30T13:41:13.556Z,7.70
2017-08-30T13:43:41.914Z,8.40
2017-08-30T13:46:10.308Z,7.13
2017-08-30T13:48:38.908Z,8.57
2017-08-30T13:51:07.479Z,7.60
2017-08-30T13:53:36.806Z,7.03
2017-08-30T13:56:05.148Z,9.27
2017-08-30T13:58:33.645Z,7.53
2017-08-30T14:01:02.181Z,7.00
2017-08-30T14:03:30.512Z,7.93
2017-08-30T14:05:58.869Z,7.80
2017-08-30T14:08:27.238Z,7.60
2017-08-30T14:10:56.005Z,7.63
2017-08-30T14:13:24.315Z,8.03
2017-08-30T14:15:52.668Z,10.50
2017-08-30T14:18:21.068Z,8.50
2017-08-30T14:20:49.589Z,8.17
2017-08-30T14:23:18.062Z,9.07
2017-08-30T14:25:46.635Z,9.07
2017-08-30T14:28:15.296Z,7.03
2017-08-30T14:30:43.662Z,8.53
2017-08-30T14:33:12.089Z,8.07
2017-08-30T14:35:40.428Z,7.50
2017-08-30T14:38:08.743Z,8.03
2017-08-30T14:40:37.427Z,8.33
2017-08-30T14:43:05.719Z,9.10
2017-08-30T14:45:34.140Z,6.43
2017-08-30T14:48:02.587Z,7.90
2017-08-30T14:50:30.896Z,8.70
2017-08-30T14:52:59.372Z,7.30
2017-08-30T14:55:27.699Z,7.40
2017-08-30T14:57:56.174Z,8.40
2017-08-30T15:00:24.534Z,7.97
2017-08-30T15:02:53.001Z,7.67
2017-08-30T15:05:21.328Z,7.30
2017-08-30T15:07:50.001Z,8.70
2017-08-30T15:10:18.505Z,8.60
2017-08-30T15:12:46.821Z,8.47
2017-08-30T15:15:15.141Z,8.23
2017-08-30T15:17:43.470Z,9.77
2017-08-30T15:20:12.373Z,8.83
2017-08-30T15:22:40.845Z,8.87
2017-08-30T15:25:09.224Z,8.70
2017-08-30T15:27:37.571Z,9.07
2017-08-30T15:30:06.049Z,7.30
2017-08-30T15:32:34.665Z,7.60
2017-08-30T15:35:03.121Z,8.13
2017-08-30T15:37:31.479Z,7.57
2017-08-30T15:39:59.878Z,6.87
2017-08-30T15:42:28.201Z,8.47
2017-08-30T15:44:56.521Z,7.60
2017-08-30T15:47:24.891Z,7.70
2017-08-30T15:49:53.229Z,7.03
2017-08-30T15:52:21.542Z,7.60
2017-08-30T15:54:49.965Z,7.70
2017-08-30T15:57:18.362Z,7.83
2017-08-30T15:59:47.108Z,7.87
2017-08-30T16:02:15.584Z,8.13
2017-08-30T16:04:43.956Z,7.47
2017-08-30T16:07:12.313Z,6.63
2017-08-30T16:09:40.763Z,6.97
2017-08-30T16:12:09.215Z,7.20
2017-08-30T16:14:37.593Z,7.77
2017-08-30T16:17:06.207Z,7.33
2017-08-30T16:19:34.532Z,7.80
2017-08-30T16:22:02.929Z,6.90
2017-08-30T16:24:31.394Z,7.40
2017-08-30T16:26:59.704Z,7.90
2017-08-30T16:29:28.188Z,8.30
2017-08-30T16:31:56.528Z,8.80
2017-08-30T16:34:25.160Z,8.37
2017-08-30T16:36:53.518Z,8.30
2017-08-30T16:39:21.844Z,7.40
2017-08-30T16:41:50.284Z,7.33
2017-08-30T16:44:18.596Z,8.40
2017-08-30T16:46:47.200Z,8.40
2017-08-30T16:49:15.582Z,7.73
2017-08-30T16:51:43.872Z,8.00
2017-08-30T16:54:12.239Z,8.27
2017-08-30T16:56:40.569Z,7.90
2017-08-30T16:59:08.965Z,7.50
2017-08-30T17:01:37.325Z,7.43
2017-08-30T17:04:05.761Z,7.57
2017-08-30T17:06:34.097Z,8.10
2017-08-30T17:09:02.703Z,7.60
2017-08-30T17:11:31.244Z,7.60
2017-08-30T17:13:59.780Z,7.20
2017-08-30T17:16:28.093Z,6.53
2017-08-30T17:18:56.418Z,9.47
2017-08-30T17:21:24.740Z,8.97
2017-08-30T17:23:53.065Z,7.13
2017-08-30T17:26:21.412Z,8.83
2017-08-30T17:28:49.748Z,9.10
2017-08-30T17:31:18.072Z,8.40
2017-08-30T17:33:46.423Z,8.43
2017-08-30T17:36:14.746Z,8.00
2017-08-30T17:38:43.253Z,7.00
2017-08-30T17:41:11.627Z,9.03
2017-08-30T17:43:40.148Z,7.90
2017-08-30T17:46:08.612Z,9.13
2017-08-30T17:48:36.930Z,8.47
2017-08-30T17:51:05.344Z,7.93
2017-08-30T17:53:33.741Z,9.17
2017-08-30T17:56:02.120Z,9.80
2017-08-30T17:58:30.579Z,7.90
2017-08-30T18:00:58.916Z,8.43
2017-08-30T18:03:27.674Z,9.23
2017-08-30T18:05:56.975Z,9.70
2017-08-30T18:08:25.305Z,10.20
2017-08-30T18:10:53.852Z,11.63
2017-08-30T18:13:22.547Z,9.60
2017-08-30T18:15:50.949Z,17.50
2017-08-30T18:18:19.278Z,10.10
2017-08-30T18:20:47.586Z,9.23
2017-08-30T18:23:15.947Z,8.90
2017-08-30T18:25:44.300Z,9.67
2017-08-30T18:28:12.971Z,9.37
2017-08-30T18:30:41.546Z,11.33
2017-08-30T18:33:10.088Z,11.07
2017-08-30T18:35:38.429Z,11.03
2017-08-30T18:38:06.929Z,11.20
2017-08-30T18:40:35.415Z,9.20
2017-08-30T18:43:03.809Z,10.60
2017-08-30T18:45:32.511Z,9.47
2017-08-30T18:48:00.843Z,10.67
2017-08-30T18:50:29.181Z,9.53
2017-08-30T18:52:58.308Z,11.83
2017-08-30T18:55:26.620Z,9.97
2017-08-30T18:57:55.001Z,10.57
2017-08-30T19:00:23.365Z,9.80
2017-08-30T19:02:51.721Z,10.93
2017-08-30T19:05:20.280Z,9.90
2017-08-30T19:07:48.750Z,10.40
2017-08-30T19:10:17.102Z,9.00
2017-08-30T19:12:45.616Z,9.27
2017-08-30T19:15:13.950Z,10.90
2017-08-30T19:17:42.302Z,11.43
2017-08-30T19:20:10.692Z,10.33
2017-08-30T19:22:39.336Z,10.67
2017-08-30T19:25:07.705Z,11.13
2017-08-30T19:27:36.041Z,11.03
2017-08-30T19:30:04.806Z,10.40
2017-08-30T19:32:33.165Z,11.10
2017-08-30T19:35:01.557Z,10.77
2017-08-30T19:37:29.923Z,14.30
2017-08-30T19:39:58.745Z,10.93
2017-08-30T19:42:27.160Z,10.73
2017-08-30T19:44:55.502Z,12.17
2017-08-30T19:47:23.822Z,11.40
2017-08-30T19:49:52.145Z,10.37
2017-08-30T19:52:20.587Z,12.10
2017-08-30T19:54:48.970Z,11.43
2017-08-30T19:57:17.364Z,12.83
2017-08-30T19:59:45.716Z,12.03
2017-08-30T20:02:14.649Z,12.70
2017-08-30T20:04:43.016Z,12.63
2017-08-30T20:07:11.910Z,12.87
2017-08-30T20:09:40.312Z,12.63
2017-08-30T20:12:08.697Z,13.30
2017-08-30T20:14:37.119Z,13.13
2017-08-30T20:17:05.470Z,17.50
2017-08-30T20:19:34.051Z,11.90
2017-08-30T20:22:02.568Z,11.07
2017-08-30T20:24:30.885Z,12.23
2017-08-30T20:26:59.227Z,13.07
2017-08-30T20:29:27.703Z,12.17
2017-08-30T20:31:56.130Z,12.53
2017-08-30T20:34:24.461Z,13.67
2017-08-30T20:36:52.977Z,12.80
2017-08-30T20:39:21.529Z,12.50
2017-08-30T20:41:49.851Z,14.07
2017-08-30T20:44:19.364Z,13.60
2017-08-30T20:46:47.737Z,12.23
2017-08-30T20:49:16.083Z,13.63
2017-08-30T20:51:44.598Z,13.03
2017-08-30T20:54:12.920Z,13.70
2017-08-30T20:56:41.295Z,14.03
2017-08-30T20:59:09.606Z,13.30
2017-08-30T21:01:38.048Z,13.60
2017-08-30T21:04:06.394Z,13.37
2017-08-30T21:06:34.771Z,13.47
2017-08-30T21:09:03.348Z,14.70
2017-08-30T21:11:31.982Z,15.30
2017-08-30T21:14:00.648Z,13.60
2017-08-30T21:16:29.084Z,14.87
2017-08-30T21:18:57.785Z,13.70
2017-08-30T21:21:26.225Z,13.60
2017-08-30T21:23:54.803Z,12.40
2017-08-30T21:26:23.483Z,15.80
2017-08-30T21:28:51.803Z,13.67
2017-08-30T21:31:20.408Z,13.60
2017-08-30T21:33:49.114Z,14.63
2017-08-30T21:36:17.527Z,14.73
2017-08-30T21:38:46.041Z,15.13
2017-08-30T21:41:14.407Z,17.03
2017-08-30T21:43:43.174Z,15.17
2017-08-30T21:46:11.535Z,14.07
2017-08-30T21:48:40.076Z,13.70
2017-08-30T21:51:08.464Z,14.30
2017-08-30T21:53:37.324Z,15.00
2017-08-30T21:56:06.728Z,14.37
2017-08-30T21:58:35.405Z,14.70
2017-08-30T22:01:03.742Z,16.73
2017-08-30T22:03:32.227Z,15.50
2017-08-30T22:06:01.084Z,15.00
2017-08-30T22:08:29.425Z,13.97
2017-08-30T22:10:57.784Z,15.87
2017-08-30T22:13:26.091Z,14.53
2017-08-30T22:15:54.438Z,15.20
2017-08-30T22:18:22.769Z,15.43
2017-08-30T22:20:51.170Z,15.90
2017-08-30T22:23:19.536Z,15.73
2017-08-30T22:25:47.927Z,16.90
2017-08-30T22:28:16.313Z,13.40
2017-08-30T22:30:44.650Z,14.50
2017-08-30T22:33:13.312Z,14.93
2017-08-30T22:35:42.176Z,14.53
2017-08-30T22:38:10.506Z,15.43
2017-08-30T22:40:38.915Z,13.00
2017-08-30T22:43:08.264Z,14.97
2017-08-30T22:45:37.615Z,14.83
2017-08-30T22:48:07.068Z,14.57
2017-08-30T22:50:36.661Z,14.10
2017-08-30T22:53:05.103Z,12.00
2017-08-30T22:55:33.689Z,12.90
2017-08-30T22:58:04.009Z,15.50
2017-08-30T23:00:32.699Z,15.37
2017-08-30T23:03:01.011Z,14.83
2017-08-30T23:05:29.585Z,18.27
2017-08-30T23:07:58.204Z,18.07
2017-08-30T23:10:27.244Z,19.33
2017-08-30T23:12:55.630Z,19.23
2017-08-30T23:15:24.193Z,19.27
2017-08-30T23:17:52.792Z,19.57
2017-08-30T23:20:21.120Z,19.47
2017-08-30T23:22:49.751Z,19.70
2017-08-30T23:25:18.382Z,19.70
2017-08-30T23:27:46.788Z,17.10
2017-08-30T23:30:15.517Z,15.67
2017-08-30T23:32:44.136Z,15.43
2017-08-30T23:35:12.557Z,15.00
2017-08-30T23:37:41.077Z,15.73
2017-08-30T23:40:09.493Z,14.10
2017-08-30T23:42:39.028Z,15.53
2017-08-30T23:45:07.363Z,15.37
2017-08-30T23:47:35.929Z,14.60
2017-08-30T23:50:04.279Z,14.00
2017-08-30T23:52:32.816Z,15.80
2017-08-30T23:55:01.377Z,12.73
2017-08-30T23:57:29.732Z,13.77
2017-08-30T23:59:58.048Z,13.83
